Latest Coastal Weather Observations for Cape Otway

IDV60701

Issued at 4:41 am EST Friday 28 April 2017 (issued every 10 minutes, with the page automatically refreshed every 10 minutes)

About coastal observations | Map of coastal stations | Coastal observations for VIC | Marine services | Other Formats
Station Details ID: 090015 Name: CAPE OTWAY LIGHTHOUSE Lat: -38.86 Lon: 143.51 Height: 82.0 m
Data from the previous 72 hours. | See also: Recent months at Cape Otway
Date/Time
EST
Temp
°C
Wind Pressure Rain since
9am
mm
Weather Cloud Vis
km
Sea
Height
m
Swell
Dir  Spd
kts
Gust
kts
hPa Trend Height
m
Period
s
Dir
28/04:30am 13.6 WNW 13 20 1021.0 - 2.2 - - - - - - -
28/04:00am 13.6 WNW 14 21 1020.9 - 2.2 - - - - - - -
28/03:30am 13.6 WNW 15 21 1020.9 - 2.2 - - - - - - -
28/03:00am 13.4 WNW 14 21 1021.1 - 2.2 - - - - - - -
28/02:30am 13.5 WNW 14 21 1021.3 - 2.2 - - - - - - -
28/02:00am 13.6 WNW 14 23 1021.1 - 2.2 - - - - - - -
28/01:30am 13.4 WNW 15 21 1021.2 - 2.2 - - - - - - -
28/01:00am 13.4 WNW 13 19 1021.3 - 2.2 - - - - - - -
28/12:30am 13.3 NW 10 15 1021.6 - 2.2 - - - - - - -
28/12:00am 13.6 WNW 13 18 1021.9 - 2.2 - - - - - - -
 
Date/Time
EST
Temp
°C
Wind Pressure Rain since
9am
mm
Weather Cloud Vis
km
Sea
Height
m
Swell
Dir  Spd
kts
Gust
kts
hPa Trend Height
m
Period
s
Dir
27/11:30pm 13.9 WNW 13 19 1022.2 - 2.2 - - - - - - -
27/11:00pm 13.6 W 14 19 1022.2 - 2.2 - - - - - - -
27/10:30pm 13.4 W 13 17 1022.2 - 2.0 - - - - - - -
27/10:00pm 14.2 W 14 21 1022.0 - 1.6 - - - - - - -
27/09:30pm 14.0 W 14 20 1021.8 - 1.6 - - - - - - -
27/09:00pm 13.4 WNW 12 18 1021.9 - 1.6 - - - - - - -
27/08:30pm 13.1 WNW 14 18 1021.9 - 1.6 - - - - - - -
27/08:00pm 12.9 WNW 15 21 1022.0 - 1.6 - - - - - - -
27/07:30pm 12.9 WNW 13 20 1022.2 - 1.6 - - - - - - -
27/07:00pm 12.7 WNW 13 19 1022.4 - 1.6 - - - - - - -
27/06:30pm 12.8 WNW 13 22 1022.0 - 1.6 - - - - - - -
27/06:00pm 13.3 W 14 19 1022.0 - 1.6 - - - - - - -
27/05:30pm 13.3 W 14 19 1021.9 - 1.6 - - - - - - -
27/05:00pm 13.4 W 15 20 1022.0 - 1.6 - - - - - - -
27/04:30pm 13.1 W 12 18 1022.2 - 1.6 - - - - - - -
27/04:00pm 13.1 WNW 11 15 1022.3 - 1.6 - - - - - - -
27/03:30pm 13.0 W 11 15 1022.5 - 1.6 - - - - - - -
27/03:00pm 12.9 W 13 18 1022.3 - 1.6 - - - - - - -
27/02:30pm 12.3 W 12 17 1022.5 - 1.6 - - - - - - -
27/02:00pm 11.8 W 12 17 1023.0 - 1.6 - - - - - - -
27/01:30pm 11.8 WSW 12 17 1023.3 - 1.6 - - - - - - -
27/01:12pm 11.1 SW 16 26 1023.5 - 1.6 - - - - - - -
27/01:00pm 11.3 SW 19 25 1023.5 - 1.6 - - - - - - -
27/12:53pm 11.4 SW 17 24 1023.5 - 1.6 - - - - - - -
27/12:30pm 12.8 SW 10 14 1023.5 - 0.4 - - - - - - -
27/12:00pm 12.0 SSW 9 12 1023.5 - 0.4 Recent precip. - - - - - -
27/11:30am 12.7 W 10 14 1023.9 - 0.2 - - - - - - -
27/11:00am 12.2 WSW 11 17 1024.0 - 0.2 - - - - - - -
27/10:30am 12.2 SW 15 27 1023.6 - 0.0 - - - - - - -
27/10:00am 12.7 SSW 15 21 1023.6 - 0.0 - - - - - - -
27/09:30am 12.6 SSW 13 17 1023.4 - 0.0 - - - - - - -
27/09:00am 12.6 SSW 13 19 1023.5 - 1.0 - - - - - - -
27/08:30am 12.4 SW 17 24 1023.3 - 1.0 - - - - - - -
27/08:00am 12.2 SSW 17 22 1023.0 - 1.0 - - - - - - -
27/07:30am 11.9 SW 16 23 1022.8 - 1.0 - - - - - - -
27/07:00am 11.9 SSW 16 23 1022.6 - 1.0 - - - - - - -
27/06:30am 11.7 SW 15 22 1022.4 - 1.0 - - - - - - -
27/06:27am 11.8 SW 15 22 1022.4 - 1.0 - - - - - - -
27/06:00am 10.7 SSW 8 11 1022.4 - 1.0 - - - - - - -
27/05:30am 10.9 SSW 14 23 1021.9 - 1.0 - - - - - - -
27/05:00am 11.3 SSW 12 18 1021.6 - 1.0 - - - - - - -
27/04:30am 11.1 SSW 10 15 1021.3 - 1.0 - - - - - - -
27/04:00am 11.2 SW 11 19 1021.1 - 1.0 - - - - - - -
27/03:30am 11.4 SSW 14 19 1021.1 - 1.0 - - - - - - -
27/03:00am 11.3 SSW 15 19 1021.3 - 1.0 - - - - - - -
27/02:30am 11.3 SSW 14 20 1021.5 - 1.0 - - - - - - -
27/02:00am 11.5 SSW 17 23 1021.2 - 1.0 - - - - - - -
27/01:30am 11.4 SSW 15 21 1021.1 - 1.0 - - - - - - -
27/01:00am 11.0 SSW 13 20 1021.1 - 1.0 - - - - - - -
27/12:30am 10.9 SSW 18 30 1020.9 - 1.0 - - - - - - -
27/12:06am 11.4 SSW 15 26 1020.8 - 1.0 - - - - - - -
27/12:00am 11.4 SSW 16 23 1020.8 - 1.0 - - - - - - -
 
Date/Time
EST
Temp
°C
Wind Pressure Rain since
9am
mm
Weather Cloud Vis
km
Sea
Height
m
Swell
Dir  Spd
kts
Gust
kts
hPa Trend Height
m
Period
s
Dir
26/11:30pm 11.0 SSW 13 19 1020.7 - 1.0 - - - - - - -
26/11:14pm 11.2 SSW 16 28 1020.5 - 1.0 - - - - - - -
26/11:00pm 11.4 SSW 13 19 1020.6 - 1.0 - - - - - - -
26/10:30pm 11.3 SSW 13 19 1020.5 - 1.0 - - - - - - -
26/10:00pm 11.4 SSW 15 25 1020.5 - 1.0 - - - - - - -
26/09:59pm 11.4 SSW 15 25 1020.4 - 1.0 - - - - - - -
26/09:30pm 11.1 SW 13 20 1020.3 - 1.0 - - - - - - -
26/09:00pm 11.4 SSW 15 23 1019.7 - 1.0 - - - - - - -
26/08:30pm 11.5 SSW 19 25 1019.5 - 1.0 - - - - - - -
26/08:07pm 11.2 SSW 18 28 1019.2 - 1.0 - - - - - - -
26/08:00pm 11.4 SSW 20 27 1019.3 - 1.0 - - - - - - -
26/07:31pm 10.8 SSW 15 25 1018.9 - 1.0 - - - - - - -
26/07:30pm 10.6 SSW 14 25 1018.8 - 1.0 - - - - - - -
26/07:23pm 9.9 SSW 15 25 1018.9 - 1.0 - - - - - - -
26/07:00pm 11.0 SSW 19 27 1018.7 - 0.8 - - - - - - -
26/06:30pm 10.5 SSW 21 29 1018.3 - 0.8 - - - - - - -
26/06:04pm 11.0 SW 18 28 1018.0 - 0.8 - - - - - - -
26/06:00pm 10.9 SW 19 28 1017.9 - 0.8 - - - - - - -
26/05:30pm 10.6 SSW 22 32 1017.6 - 0.8 - - - - - - -
26/05:07pm 10.9 SSW 17 28 1017.2 - 0.8 - - - - - - -
26/05:00pm 10.4 SW 17 31 1017.3 - 0.8 - - - - - - -
26/04:35pm 10.8 SSW 19 29 1016.9 - 0.8 - - - - - - -
26/04:30pm 11.0 SSW 17 25 1016.9 - 0.8 - - - - - - -
26/04:00pm 9.5 SSW 20 31 1016.8 - 0.8 - - - - - - -
26/03:30pm 8.9 SSW 21 34 1016.2 - 0.4 - - - - - - -
26/03:00pm 12.1 SW 18 28 1015.9 - 0.0 - - - - - - -
26/02:30pm 11.6 SSW 21 27 1015.6 - 0.0 - - - - - - -
26/02:14pm 11.6 SSW 18 28 1015.5 - 0.0 - - - - - - -
26/02:00pm 11.4 SSW 21 27 1015.6 - 0.0 - - - - - - -
26/01:30pm 11.3 SW 22 34 1015.1 - 0.0 - - - - - - -
26/01:00pm 11.8 SW 24 34 1015.2 - 0.0 - - - - - - -
26/12:30pm 12.1 SSW 23 33 1014.9 - 0.0 - - - - - - -
26/12:16pm 11.9 SSW 23 33 1014.9 - 0.0 - - - - - - -
26/12:00pm 11.6 SSW 25 31 1014.9 - 0.0 - - - - - - -
26/11:39am 11.5 SSW 25 36 1014.7 - 0.0 - - - - - - -
26/11:30am 11.1 SSW 26 33 1014.7 - 0.0 - - - - - - -
26/11:00am 11.0 SSW 26 37 1014.2 - 0.0 - - - - - - -
26/10:57am 11.6 SSW 24 36 1014.1 - 0.0 - - - - - - -
26/10:30am 11.5 SSW 24 31 1013.8 - 0.0 - - - - - - -
26/10:01am 11.6 SSW 24 34 1013.0 - 0.0 - - - - - - -
26/10:00am 11.5 SSW 25 34 1013.3 - 0.0 - - - - - - -
26/09:30am 11.3 SSW 26 36 1013.0 - 0.0 - - - - - - -
26/09:00am 11.3 SSW 23 33 1012.4 - 9.2 - - - - - - -
26/08:30am 10.6 SSW 28 39 1011.7 - 9.2 - - - - - - -
26/08:19am 10.7 SSW 27 44 1011.2 - 9.2 - - - - - - -
26/08:18am 10.7 SSW 27 44 1011.4 - 9.2 - - - - - - -
26/08:16am 10.9 SSW 27 42 1011.1 - 9.2 - - - - - - -
26/08:15am 10.9 SSW 29 43 1010.9 - 9.2 - - - - - - -
26/08:10am 11.1 SSW 29 43 1010.8 - 9.2 - - - - - - -
26/08:06am 11.2 SSW 25 43 1010.8 - 9.2 - - - - - - -
26/08:00am 11.9 SSW 19 32 1010.6 - 9.2 - - - - - - -
26/07:39am 12.1 SSW 19 29 1010.4 - 9.2 - - - - - - -
26/07:30am 11.9 SSW 19 27 1010.1 - 9.2 - - - - - - -
26/07:02am 11.5 SSW 19 29 1009.8 - 9.2 - - - - - - -
26/07:00am 11.3 SSW 19 28 1009.8 - 9.2 - - - - - - -
26/06:34am 11.7 SSW 23 33 1008.9 - 9.2 - - - - - - -
26/06:30am 11.7 SSW 26 33 1008.9 - 9.2 - - - - - - -
26/06:09am 12.1 SSW 24 37 1008.2 - 9.2 - - - - - - -
26/06:05am 11.9 SSW 20 37 1008.1 - 9.2 - - - - - - -
26/06:04am 11.8 SSW 18 37 1008.1 - 9.2 - - - - - - -
26/06:00am 11.3 SSW 16 27 1008.2 - 9.2 - - - - - - -
26/05:36am 12.1 SSW 26 36 1007.4 - 9.2 - - - - - - -
26/05:30am 12.1 SSW 25 33 1007.5 - 9.2 - - - - - - -
26/05:00am 11.9 SSW 26 37 1006.7 - 9.2 - - - - - - -
26/04:34am 11.8 SSW 29 41 1005.8 - 9.2 - - - - - - -
26/04:30am 11.9 SSW 28 36 1005.9 - 9.2 - - - - - - -
26/04:05am 12.1 SSW 24 37 1005.2 - 9.0 - - - - - - -
26/04:00am 11.3 SSW 24 32 1005.3 - 9.0 - - - - - - -
26/03:49am 10.3 SSW 27 43 1005.4 - 9.0 - - - - - - -
26/03:46am 10.8 SSW 23 43 1005.2 - 9.0 - - - - - - -
26/03:45am 11.2 SSW 21 43 1005.1 - 9.0 - - - - - - -
26/03:43am 12.4 SSW 19 29 1005.2 - 9.0 - - - - - - -
26/03:30am 12.1 SSW 23 31 1005.0 - 9.0 - - - - - - -
26/03:12am 12.0 SSW 19 29 1005.1 - 8.8 - - - - - - -
26/03:00am 11.6 SW 19 27 1005.1 - 8.8 - - - - - - -
26/02:33am 11.2 SW 17 27 1005.1 - 8.8 - - - - - - -
26/02:30am 11.1 SSW 16 23 1005.1 - 8.8 - - - - - - -
26/02:02am 11.0 SSW 22 32 1004.7 - 8.8 - - - - - - -
26/02:00am 10.8 SSW 23 32 1004.7 - 8.8 - - - - - - -
26/01:30am 11.1 SSW 29 37 1004.1 - 8.6 - - - - - - -
26/01:00am 11.0 SSW 29 40 1003.8 - 8.2 - - - - - - -
26/12:30am 10.7 SSW 32 47 1002.9 - 7.8 - - - - - - -
26/12:21am 11.7 SSW 32 42 1002.8 - 7.0 - - - - - - -
26/12:18am 11.1 SSW 32 42 1002.5 - 7.0 - - - - - - -
26/12:06am 12.6 SW 23 35 1002.2 - 6.4 - - - - - - -
26/12:02am 12.5 WSW 20 31 1002.3 - 6.2 - - - - - - -
26/12:00am 13.1 WSW 19 27 1002.4 - 6.2 Rain - - - - - -
 
Date/Time
EST
Temp
°C
Wind Pressure Rain since
9am
mm
Weather Cloud Vis
km
Sea
Height
m
Swell
Dir  Spd
kts
Gust
kts
hPa Trend Height
m
Period
s
Dir
25/11:50pm 13.2 W 18 28 1002.6 - 5.8 - - - - - - -
25/11:30pm 13.1 NW 15 23 1002.6 - 3.2 - - - - - - -
25/11:00pm 13.2 NW 19 31 1002.5 - 3.2 - - - - - - -
25/10:42pm 12.9 NW 15 25 1002.7 - 3.2 - - - - - - -
25/10:30pm 12.8 NW 13 24 1002.9 - 3.2 - - - - - - -
25/10:00pm 12.7 NW 11 19 1003.4 - 3.2 - - - - - - -
25/09:30pm 13.0 NW 10 15 1004.0 - 2.4 - - - - - - -
25/09:00pm 13.3 NW 12 19 1004.3 - 2.4 - - - - - - -
25/08:30pm 13.6 WNW 13 20 1004.5 - 2.4 - - - - - - -
25/08:00pm 13.7 WNW 13 19 1004.9 - 2.4 - - - - - - -
25/07:30pm 13.5 WNW 11 16 1004.9 - 2.2 - - - - - - -
25/07:00pm 13.7 WNW 16 29 1005.0 - 1.4 - - - - - - -
25/06:55pm 13.7 WNW 15 29 1005.0 - 0.6 - - - - - - -
25/06:30pm 15.2 WNW 11 17 1004.8 - 0.0 - - - - - - -
25/06:00pm 15.2 WNW 10 15 1004.7 - 0.0 - - - - - - -
25/05:30pm 15.2 WNW 11 14 1004.9 - 0.0 - - - - - - -
25/05:00pm 15.4 WNW 9 13 1005.0 - 0.0 - - - - - - -
25/04:30pm 15.9 NW 9 13 1005.2 - 0.0 - - - - - - -
25/04:00pm 16.1 WNW 10 15 1005.6 - 0.0 - - - - - - -
25/03:30pm 16.1 WNW 11 15 1005.9 - 0.0 - - - - - - -
25/03:00pm 15.9 W 14 21 1006.1 - 0.0 - - - - - - -
25/02:30pm 15.5 W 14 19 1006.5 - 0.0 - - - - - - -
25/02:00pm 15.9 W 12 17 1006.7 - 0.0 - - - - - - -
25/01:30pm 16.3 W 11 15 1007.0 - 0.0 - - - - - - -
25/01:00pm 15.9 W 12 17 1007.5 - 0.0 - - - - - - -
25/12:30pm 16.0 W 12 15 1007.9 - 0.0 - - - - - - -
25/12:00pm 15.5 W 11 16 1008.2 - 0.0 - - - - - - -
25/11:30am 15.5 WSW 10 14 1008.6 - 0.0 - - - - - - -
25/11:00am 15.4 WSW 11 16 1008.9 - 0.0 - - - - - - -
25/10:30am 15.5 WSW 13 18 1008.9 - 0.0 - - - - - - -
25/10:00am 14.9 WSW 13 18 1008.9 - 0.0 - - - - - - -
25/09:30am 14.9 WSW 12 15 1009.0 - 0.0 - - - - - - -
25/09:00am 14.8 SW 12 15 1008.9 - 18.0 - - - - - - -
25/08:30am 14.7 SW 11 14 1008.7 - 18.0 - - - - - - -
25/08:00am 14.7 SSW 9 13 1008.5 - 18.0 - - - - - - -
25/07:30am 14.5 SW 10 14 1008.2 - 18.0 - - - - - - -
25/07:00am 13.7 SSW 11 16 1008.1 - 18.0 - - - - - - -
25/06:30am 13.6 SSW 13 17 1008.0 - 17.8 - - - - - - -
25/06:00am 14.1 SSW 16 20 1007.8 - 17.4 Rain - - - - - -
25/05:30am 14.3 SSW 11 16 1007.7 - 17.2 - - - - - - -
25/05:00am 14.5 WSW 6 8 1007.6 - 17.0 - - - - - - -

Other Formats:

Comma delimited format used in spreadsheet applications
http://www.bom.gov.au/fwo/IDV60701/IDV60701.94842.axf

JavaScript Object Notation format (JSON) in row-major order
http://www.bom.gov.au/fwo/IDV60701/IDV60701.94842.json